createdAt,value
2018-09-18T00:01:31.268Z,15.50
2018-09-18T00:03:36.628Z,15.50
2018-09-18T00:05:43.790Z,15.50
2018-09-18T00:07:49.536Z,15.50
2018-09-18T00:09:54.775Z,15.40
2018-09-18T00:12:00.731Z,15.40
2018-09-18T00:14:06.268Z,15.40
2018-09-18T00:16:11.603Z,15.40
2018-09-18T00:18:16.841Z,15.30
2018-09-18T00:20:22.176Z,15.30
2018-09-18T00:22:27.926Z,15.30
2018-09-18T00:24:33.262Z,15.20
2018-09-18T00:26:44.640Z,15.20
2018-09-18T00:28:50.081Z,15.10
2018-09-18T00:30:56.544Z,15.10
2018-09-18T00:33:01.812Z,15.10
2018-09-18T00:35:07.040Z,15.10
2018-09-18T00:37:12.463Z,15.00
2018-09-18T00:39:18.000Z,15.00
2018-09-18T00:41:23.336Z,14.90
2018-09-18T00:43:28.571Z,14.90
2018-09-18T00:45:34.013Z,14.90
2018-09-18T00:47:39.401Z,14.90
2018-09-18T00:49:44.633Z,14.90
2018-09-18T00:51:49.822Z,14.90
2018-09-18T00:53:55.091Z,14.80
2018-09-18T00:56:00.315Z,14.80
2018-09-18T00:58:05.548Z,14.80
2018-09-18T01:00:11.170Z,14.80
2018-09-18T01:02:16.509Z,14.70
2018-09-18T01:04:22.153Z,14.70
2018-09-18T01:06:30.975Z,14.70
2018-09-18T01:08:36.206Z,14.70
2018-09-18T01:10:41.545Z,14.70
2018-09-18T01:12:46.579Z,14.60
2018-09-18T01:15:12.421Z,14.60
2018-09-18T01:17:17.730Z,14.60
2018-09-18T01:19:25.219Z,14.50
2018-09-18T01:21:30.562Z,14.50
2018-09-18T01:23:35.794Z,14.50
2018-09-18T01:25:41.028Z,14.50
2018-09-18T01:27:46.265Z,14.50
2018-09-18T01:29:51.498Z,14.50
2018-09-18T01:31:56.733Z,14.40
2018-09-18T01:34:01.968Z,14.40
2018-09-18T01:36:07.204Z,14.40
2018-09-18T01:38:12.337Z,14.40
2018-09-18T01:40:17.571Z,14.40
2018-09-18T01:42:23.014Z,14.40
2018-09-18T01:44:28.454Z,14.40
2018-09-18T01:46:33.791Z,14.40
2018-09-18T01:48:41.382Z,14.30
2018-09-18T01:50:46.717Z,14.30
2018-09-18T01:52:52.366Z,14.30
2018-09-18T01:54:58.115Z,14.20
2018-09-18T01:57:03.857Z,14.20
2018-09-18T01:59:10.017Z,14.20
2018-09-18T02:01:15.355Z,14.10
2018-09-18T02:03:20.808Z,14.10
2018-09-18T02:05:26.238Z,14.10
2018-09-18T02:07:31.569Z,14.10
2018-09-18T02:09:36.819Z,14.10
2018-09-18T02:11:42.042Z,14.00
2018-09-18T02:13:47.280Z,14.00
2018-09-18T02:15:52.511Z,14.00
2018-09-18T02:17:58.163Z,14.00
2018-09-18T02:20:05.246Z,13.90
2018-09-18T02:22:13.143Z,13.90
2018-09-18T02:24:18.785Z,13.80
2018-09-18T02:26:25.357Z,13.80
2018-09-18T02:28:30.789Z,13.80
2018-09-18T02:30:40.127Z,13.80
2018-09-18T02:32:45.356Z,13.70
2018-09-18T02:34:50.996Z,13.60
2018-09-18T02:36:56.237Z,13.60
2018-09-18T02:39:01.536Z,13.50
2018-09-18T02:41:07.111Z,13.50
2018-09-18T02:43:12.551Z,13.50
2018-09-18T02:45:24.655Z,13.50
2018-09-18T02:47:31.113Z,13.50
2018-09-18T02:49:36.552Z,13.50
2018-09-18T02:51:41.915Z,13.50
2018-09-18T02:53:48.180Z,13.50
2018-09-18T02:55:53.502Z,13.40
2018-09-18T02:58:02.924Z,13.40
2018-09-18T03:00:08.360Z,13.40
2018-09-18T03:02:13.716Z,13.40
2018-09-18T03:04:19.139Z,13.40
2018-09-18T03:06:24.686Z,13.40
2018-09-18T03:08:29.757Z,13.30
2018-09-18T03:10:38.428Z,13.30
2018-09-18T03:12:43.768Z,13.30
2018-09-18T03:14:50.044Z,13.30
2018-09-18T03:16:55.158Z,13.30
2018-09-18T03:19:01.008Z,13.30
2018-09-18T03:21:06.329Z,13.30
2018-09-18T03:23:11.687Z,13.20
2018-09-18T03:25:17.022Z,13.20
2018-09-18T03:27:22.722Z,13.20
2018-09-18T03:29:29.847Z,13.10
2018-09-18T03:31:36.431Z,13.10
2018-09-18T03:33:41.755Z,13.10
2018-09-18T03:35:47.276Z,13.10
2018-09-18T03:37:52.944Z,13.10
2018-09-18T03:39:58.194Z,13.10
2018-09-18T03:42:03.731Z,13.00
2018-09-18T03:44:09.056Z,13.00
2018-09-18T03:46:14.393Z,13.00
2018-09-18T03:48:21.574Z,13.00
2018-09-18T03:50:27.116Z,13.00
2018-09-18T03:52:33.480Z,13.00
2018-09-18T03:54:38.718Z,13.00
2018-09-18T03:56:45.180Z,13.00
2018-09-18T03:58:50.719Z,12.90
2018-09-18T04:00:55.954Z,13.00
2018-09-18T04:03:01.246Z,12.90
2018-09-18T04:05:11.033Z,12.90
2018-09-18T04:07:16.271Z,12.90
2018-09-18T04:09:23.757Z,12.90
2018-09-18T04:11:29.095Z,12.80
2018-09-18T04:13:35.054Z,12.80
2018-09-18T04:15:41.210Z,12.80
2018-09-18T04:17:49.307Z,12.70
2018-09-18T04:19:54.954Z,12.70
2018-09-18T04:22:02.239Z,12.60
2018-09-18T04:24:07.575Z,12.60
2018-09-18T04:26:12.709Z,12.60
2018-09-18T04:28:18.350Z,12.50
2018-09-18T04:30:23.799Z,12.60
2018-09-18T04:32:31.486Z,12.50
2018-09-18T04:34:37.032Z,12.50
2018-09-18T04:36:43.521Z,12.50
2018-09-18T04:38:48.752Z,12.50
2018-09-18T04:41:05.330Z,12.50
2018-09-18T04:43:10.669Z,12.50
2018-09-18T04:45:25.540Z,12.50
2018-09-18T04:47:31.074Z,12.40
2018-09-18T04:49:36.727Z,12.40
2018-09-18T04:51:41.948Z,12.40
2018-09-18T04:53:47.249Z,12.40
2018-09-18T04:55:52.422Z,12.30
2018-09-18T04:57:57.862Z,12.30
2018-09-18T05:00:02.933Z,12.30
2018-09-18T05:02:08.217Z,12.30
2018-09-18T05:04:13.571Z,12.20
2018-09-18T05:06:19.006Z,12.20
2018-09-18T05:08:28.446Z,12.20
2018-09-18T05:10:36.093Z,12.20
2018-09-18T05:12:41.316Z,12.20
2018-09-18T05:14:46.540Z,12.20
2018-09-18T05:16:51.765Z,12.20
2018-09-18T05:18:56.999Z,12.20
2018-09-18T05:21:02.418Z,12.20
2018-09-18T05:23:07.961Z,12.20
2018-09-18T05:25:13.291Z,12.20
2018-09-18T05:27:18.833Z,12.20
2018-09-18T05:29:24.375Z,12.20
2018-09-18T05:31:29.815Z,12.20
2018-09-18T05:33:43.360Z,12.10
2018-09-18T05:35:50.373Z,12.10
2018-09-18T05:37:56.188Z,12.10
2018-09-18T05:40:02.431Z,12.10
2018-09-18T05:42:13.090Z,12.10
2018-09-18T05:44:18.765Z,12.10
2018-09-18T05:46:24.386Z,12.20
2018-09-18T05:48:34.638Z,12.10
2018-09-18T05:50:40.187Z,12.20
2018-09-18T05:52:53.722Z,12.20
2018-09-18T05:55:02.346Z,12.20
2018-09-18T05:57:21.223Z,12.20
2018-09-18T05:59:39.330Z,12.20
2018-09-18T06:01:51.233Z,12.20
2018-09-18T06:04:03.738Z,12.20
2018-09-18T06:06:18.585Z,12.30
2018-09-18T06:08:29.778Z,12.30
2018-09-18T06:10:36.131Z,12.40
2018-09-18T06:12:48.212Z,12.50
2018-09-18T06:14:54.183Z,12.60
2018-09-18T06:17:02.412Z,12.70
2018-09-18T06:19:09.152Z,12.80
2018-09-18T06:21:16.631Z,12.90
2018-09-18T06:23:22.780Z,13.00
2018-09-18T06:25:30.914Z,13.20
2018-09-18T06:27:37.518Z,13.40
2018-09-18T06:29:44.067Z,13.60
2018-09-18T06:31:52.348Z,13.90
2018-09-18T06:34:02.062Z,14.10
2018-09-18T06:36:07.403Z,14.30
2018-09-18T06:38:12.761Z,14.60
2018-09-18T06:40:18.283Z,14.90
2018-09-18T06:42:23.650Z,15.10
2018-09-18T06:44:28.961Z,15.50
2018-09-18T06:46:34.093Z,15.80
2018-09-18T06:48:39.326Z,16.10
2018-09-18T06:50:49.681Z,16.30
2018-09-18T06:52:54.813Z,16.50
2018-09-18T06:55:03.593Z,16.80
2018-09-18T06:57:09.081Z,17.10
2018-09-18T06:59:14.511Z,17.40
2018-09-18T07:01:20.294Z,17.70
2018-09-18T07:03:25.905Z,18.00
2018-09-18T07:05:31.246Z,18.20
2018-09-18T07:07:40.880Z,18.40
2018-09-18T07:09:49.727Z,18.80
2018-09-18T07:11:55.425Z,19.00
2018-09-18T07:14:00.887Z,19.30
2018-09-18T07:16:06.224Z,19.60
2018-09-18T07:18:11.638Z,19.80
2018-09-18T07:20:22.327Z,20.00
2018-09-18T07:22:27.594Z,20.20
2018-09-18T07:24:32.899Z,20.30
2018-09-18T07:26:38.237Z,20.50
2018-09-18T07:28:43.679Z,20.70
2018-09-18T07:30:48.915Z,20.80
2018-09-18T07:33:00.737Z,21.10
2018-09-18T07:35:06.142Z,21.30
2018-09-18T07:37:11.581Z,21.60
2018-09-18T07:39:16.922Z,21.70
2018-09-18T07:41:24.104Z,21.80
2018-09-18T07:43:29.851Z,22.00
2018-09-18T07:45:40.835Z,22.10
2018-09-18T07:47:46.260Z,22.20
2018-09-18T07:49:51.800Z,22.30
2018-09-18T07:51:55.691Z,22.40
2018-09-18T07:53:59.867Z,22.50
2018-09-18T07:56:03.869Z,22.70
2018-09-18T07:58:07.600Z,22.80
2018-09-18T08:00:11.285Z,23.20
2018-09-18T08:02:15.376Z,23.30
2018-09-18T08:04:19.971Z,23.50
2018-09-18T08:06:23.743Z,23.60
2018-09-18T08:08:27.507Z,23.90
2018-09-18T08:10:31.271Z,24.20
2018-09-18T08:12:35.001Z,24.40
2018-09-18T08:14:38.720Z,24.60
2018-09-18T08:16:42.398Z,24.90
2018-09-18T08:18:46.171Z,25.00
2018-09-18T08:20:49.805Z,25.00
2018-09-18T08:22:53.488Z,24.90
2018-09-18T08:24:57.196Z,25.00
2018-09-18T08:27:00.859Z,25.10
2018-09-18T08:29:04.570Z,25.20
2018-09-18T08:31:08.230Z,25.40
2018-09-18T08:33:11.964Z,25.60
2018-09-18T08:35:15.636Z,25.60
2018-09-18T08:37:19.393Z,25.80
2018-09-18T08:39:23.089Z,26.00
2018-09-18T08:41:26.811Z,26.10
2018-09-18T08:43:30.535Z,26.10
2018-09-18T08:45:34.215Z,26.20
2018-09-18T08:47:38.006Z,26.20
2018-09-18T08:49:41.730Z,26.10
2018-09-18T08:51:45.418Z,26.00
2018-09-18T08:53:49.032Z,25.90
2018-09-18T08:55:52.824Z,25.80
2018-09-18T08:57:56.518Z,26.00
2018-09-18T09:00:00.227Z,26.10
2018-09-18T09:02:03.885Z,25.90
2018-09-18T09:04:07.617Z,25.90
2018-09-18T09:06:11.288Z,26.00
2018-09-18T09:08:15.556Z,26.20
2018-09-18T09:10:19.137Z,26.40
2018-09-18T09:12:22.808Z,26.50
2018-09-18T09:14:26.640Z,26.30
2018-09-18T09:16:30.293Z,26.10
2018-09-18T09:18:34.020Z,25.90
2018-09-18T09:20:37.665Z,25.90
2018-09-18T09:22:41.373Z,25.80
2018-09-18T09:24:45.119Z,25.90
2018-09-18T09:26:49.734Z,26.10
2018-09-18T09:28:53.462Z,26.20
2018-09-18T09:30:57.153Z,26.50
2018-09-18T09:33:00.898Z,26.70
2018-09-18T09:35:04.852Z,26.90
2018-09-18T09:37:08.627Z,27.20
2018-09-18T09:39:12.709Z,27.40
2018-09-18T09:41:16.396Z,27.50
2018-09-18T09:43:20.094Z,27.80
2018-09-18T09:45:24.178Z,28.00
2018-09-18T09:47:27.922Z,28.10
2018-09-18T09:49:31.675Z,28.20
2018-09-18T09:51:35.432Z,28.20
2018-09-18T09:53:39.237Z,28.30
2018-09-18T09:55:42.927Z,28.30
2018-09-18T09:57:46.625Z,28.20
2018-09-18T09:59:52.216Z,28.30
2018-09-18T10:02:17.017Z,28.50
2018-09-18T10:04:20.764Z,28.70
2018-09-18T10:06:24.689Z,28.50
2018-09-18T10:08:28.480Z,28.30
2018-09-18T10:10:32.206Z,28.10
2018-09-18T10:12:35.939Z,27.90
2018-09-18T10:14:39.722Z,28.00
2018-09-18T10:16:43.439Z,28.10
2018-09-18T10:18:47.152Z,28.30
2018-09-18T10:20:50.816Z,28.60
2018-09-18T10:22:54.516Z,28.70
2018-09-18T10:24:58.277Z,28.50
2018-09-18T10:27:01.978Z,28.30
2018-09-18T10:29:05.731Z,28.30
2018-09-18T10:31:09.470Z,28.10
2018-09-18T10:33:13.186Z,27.90
2018-09-18T10:35:16.948Z,28.10
2018-09-18T10:37:20.671Z,28.20
2018-09-18T10:39:24.972Z,28.40
2018-09-18T10:41:28.710Z,28.70
2018-09-18T10:43:32.492Z,28.80
2018-09-18T10:45:36.230Z,29.10
2018-09-18T10:47:40.031Z,29.30
2018-09-18T10:49:43.761Z,29.10
2018-09-18T10:51:47.475Z,28.90
2018-09-18T10:53:51.304Z,28.90
2018-09-18T10:55:55.054Z,29.00
2018-09-18T10:57:59.405Z,29.20
2018-09-18T11:00:03.504Z,29.40
2018-09-18T11:02:08.010Z,29.60
2018-09-18T11:04:11.732Z,29.60
2018-09-18T11:06:15.555Z,29.70
2018-09-18T11:08:19.398Z,29.90
2018-09-18T11:10:23.259Z,30.00
2018-09-18T11:12:26.993Z,30.20
2018-09-18T11:14:30.998Z,30.30
2018-09-18T11:16:34.785Z,30.50
2018-09-18T11:18:38.645Z,30.60
2018-09-18T11:20:42.552Z,30.90
2018-09-18T11:22:46.560Z,30.90
2018-09-18T11:24:50.300Z,30.90
2018-09-18T11:26:54.068Z,30.80
2018-09-18T11:28:57.773Z,30.90
2018-09-18T11:31:01.462Z,31.10
2018-09-18T11:33:05.141Z,31.20
2018-09-18T11:35:09.212Z,31.10
2018-09-18T11:37:13.625Z,30.90
2018-09-18T11:39:17.308Z,30.80
2018-09-18T11:41:20.985Z,30.80
2018-09-18T11:43:24.670Z,30.90
2018-09-18T11:45:28.461Z,31.00
2018-09-18T11:47:32.156Z,31.20
2018-09-18T11:49:35.914Z,31.10
2018-09-18T11:51:39.669Z,31.10
2018-09-18T11:53:43.358Z,31.20
2018-09-18T11:55:47.101Z,31.40
2018-09-18T11:57:50.807Z,31.60
2018-09-18T11:59:54.553Z,31.60
2018-09-18T12:01:58.342Z,31.30
2018-09-18T12:04:02.203Z,31.30
2018-09-18T12:06:05.908Z,31.40
2018-09-18T12:08:09.574Z,31.50
2018-09-18T12:10:13.342Z,31.50
2018-09-18T12:12:17.028Z,31.70
2018-09-18T12:14:20.824Z,31.80
2018-09-18T12:16:24.555Z,31.90
2018-09-18T12:18:28.267Z,32.00
2018-09-18T12:20:31.940Z,32.00
2018-09-18T12:22:36.791Z,32.00
2018-09-18T12:24:40.499Z,31.70
2018-09-18T12:26:45.055Z,31.70
2018-09-18T12:28:48.833Z,31.70
2018-09-18T12:30:52.583Z,31.90
2018-09-18T12:32:56.407Z,32.10
2018-09-18T12:35:00.362Z,32.10
2018-09-18T12:37:04.028Z,31.90
2018-09-18T12:39:10.236Z,31.90
2018-09-18T12:41:14.019Z,31.50
2018-09-18T12:43:17.667Z,31.30
2018-09-18T12:45:21.463Z,31.10
2018-09-18T12:47:25.169Z,31.00
2018-09-18T12:49:28.981Z,31.10
2018-09-18T12:51:32.683Z,31.40
2018-09-18T12:53:36.476Z,31.50
2018-09-18T12:55:40.228Z,31.50
2018-09-18T12:57:43.988Z,31.40
2018-09-18T12:59:47.843Z,31.70
2018-09-18T13:01:51.469Z,31.70
2018-09-18T13:03:55.152Z,31.40
2018-09-18T13:05:58.898Z,31.30
2018-09-18T13:08:02.596Z,31.20
2018-09-18T13:10:06.628Z,31.00
2018-09-18T13:12:10.268Z,30.90
2018-09-18T13:14:14.447Z,30.90
2018-09-18T13:16:18.107Z,31.00
2018-09-18T13:18:21.792Z,30.70
2018-09-18T13:20:25.803Z,30.70
2018-09-18T13:22:29.547Z,30.70
2018-09-18T13:24:33.305Z,30.70
2018-09-18T13:26:36.983Z,30.60
2018-09-18T13:28:40.692Z,30.60
2018-09-18T13:30:44.469Z,30.70
2018-09-18T13:32:48.245Z,30.60
2018-09-18T13:34:52.008Z,30.60
2018-09-18T13:36:55.778Z,30.60
2018-09-18T13:38:59.496Z,30.60
2018-09-18T13:41:03.437Z,30.40
2018-09-18T13:43:06.960Z,30.30
2018-09-18T13:45:11.019Z,30.10
2018-09-18T13:47:15.068Z,29.90
2018-09-18T13:49:18.971Z,29.90
2018-09-18T13:51:22.973Z,30.10
2018-09-18T13:53:26.750Z,30.30
2018-09-18T13:55:30.729Z,30.30
2018-09-18T13:57:34.526Z,30.30
2018-09-18T13:59:38.465Z,30.30
2018-09-18T14:01:42.385Z,30.30
2018-09-18T14:03:46.005Z,30.30
2018-09-18T14:05:49.726Z,30.40
2018-09-18T14:07:53.499Z,30.40
2018-09-18T14:09:57.306Z,30.40
2018-09-18T14:12:01.053Z,30.40
2018-09-18T14:14:04.933Z,30.60
2018-09-18T14:16:09.271Z,30.70
2018-09-18T14:18:12.925Z,30.70
2018-09-18T14:20:16.818Z,30.70
2018-09-18T14:22:20.652Z,30.70
2018-09-18T14:24:24.365Z,30.80
2018-09-18T14:26:28.150Z,30.80
2018-09-18T14:28:31.869Z,30.70
2018-09-18T14:30:35.652Z,30.70
2018-09-18T14:32:39.350Z,30.80
2018-09-18T14:34:43.094Z,30.90
2018-09-18T14:36:46.849Z,31.10
2018-09-18T14:38:50.896Z,31.20
2018-09-18T14:40:54.681Z,31.40
2018-09-18T14:42:58.357Z,31.20
2018-09-18T14:45:02.098Z,31.10
2018-09-18T14:47:05.931Z,31.10
2018-09-18T14:49:09.570Z,31.10
2018-09-18T14:51:13.447Z,31.20
2018-09-18T14:53:17.057Z,31.10
2018-09-18T14:55:20.811Z,31.00
2018-09-18T14:57:24.498Z,31.00
2018-09-18T14:59:28.687Z,31.10
2018-09-18T15:01:32.434Z,31.10
2018-09-18T15:03:36.095Z,31.10
2018-09-18T15:05:39.844Z,30.90
2018-09-18T15:07:43.599Z,30.90
2018-09-18T15:09:47.306Z,30.80
2018-09-18T15:11:51.039Z,30.60
2018-09-18T15:13:54.774Z,30.50
2018-09-18T15:15:59.073Z,30.50
2018-09-18T15:18:04.708Z,30.50
2018-09-18T15:20:08.428Z,30.50
2018-09-18T15:22:14.954Z,30.40
2018-09-18T15:24:19.951Z,30.20
2018-09-18T15:26:25.893Z,30.00
2018-09-18T15:28:30.748Z,29.80
2018-09-18T15:30:36.166Z,29.60
2018-09-18T15:32:41.221Z,29.30
2018-09-18T15:34:49.211Z,29.20
2018-09-18T15:36:54.978Z,29.10
2018-09-18T15:39:00.663Z,29.00
2018-09-18T15:41:08.692Z,29.00
2018-09-18T15:43:13.169Z,28.90
2018-09-18T15:45:17.534Z,28.90
2018-09-18T15:47:21.956Z,28.80
2018-09-18T15:49:26.067Z,28.70
2018-09-18T15:51:30.152Z,28.70
2018-09-18T15:53:34.159Z,28.60
2018-09-18T15:55:38.012Z,28.60
2018-09-18T15:57:42.032Z,28.50
2018-09-18T15:59:47.554Z,28.50
2018-09-18T16:01:51.758Z,28.40
2018-09-18T16:03:55.728Z,28.40
2018-09-18T16:05:59.769Z,28.40
2018-09-18T16:08:03.466Z,28.30
2018-09-18T16:10:07.196Z,28.20
2018-09-18T16:12:10.964Z,28.10
2018-09-18T16:14:16.732Z,28.00
2018-09-18T16:16:20.685Z,28.00
2018-09-18T16:18:25.120Z,27.90
2018-09-18T16:20:28.945Z,27.80
2018-09-18T16:22:32.848Z,27.70
2018-09-18T16:24:36.674Z,27.60
2018-09-18T16:26:40.376Z,27.50
2018-09-18T16:28:44.083Z,27.40
2018-09-18T16:30:47.912Z,27.30
2018-09-18T16:32:52.681Z,27.20
2018-09-18T16:34:56.455Z,27.10
2018-09-18T16:37:00.172Z,27.00
2018-09-18T16:39:04.809Z,26.90
2018-09-18T16:41:08.642Z,26.80
2018-09-18T16:43:12.305Z,26.70
2018-09-18T16:45:16.128Z,26.60
2018-09-18T16:47:19.926Z,26.50
2018-09-18T16:49:23.731Z,26.40
2018-09-18T16:51:27.492Z,26.30
2018-09-18T16:53:31.207Z,26.30
2018-09-18T16:55:36.033Z,26.10
2018-09-18T16:57:39.866Z,26.10
2018-09-18T16:59:43.658Z,26.00
2018-09-18T17:01:47.355Z,26.00
2018-09-18T17:03:51.099Z,25.90
2018-09-18T17:05:55.163Z,25.90
2018-09-18T17:07:59.873Z,25.90
2018-09-18T17:10:07.672Z,25.80
2018-09-18T17:12:11.471Z,25.80
2018-09-18T17:14:15.293Z,25.70
2018-09-18T17:16:19.072Z,25.70
2018-09-18T17:18:22.762Z,25.70
2018-09-18T17:20:26.434Z,25.60
2018-09-18T17:22:30.179Z,25.60
2018-09-18T17:24:36.643Z,25.60
2018-09-18T17:26:40.486Z,25.60
2018-09-18T17:28:44.921Z,25.60
2018-09-18T17:30:48.561Z,25.50
2018-09-18T17:32:52.327Z,25.40
2018-09-18T17:34:56.223Z,25.30
2018-09-18T17:37:00.122Z,25.20
2018-09-18T17:39:05.047Z,25.10
2018-09-18T17:41:09.109Z,25.00
2018-09-18T17:43:12.881Z,25.00
2018-09-18T17:45:16.913Z,25.00
2018-09-18T17:47:20.695Z,24.90
2018-09-18T17:49:24.529Z,24.80
2018-09-18T17:51:28.353Z,24.80
2018-09-18T17:53:34.315Z,24.80
2018-09-18T17:55:37.995Z,24.80
2018-09-18T17:57:42.695Z,24.70
2018-09-18T17:59:46.523Z,24.70
2018-09-18T18:01:53.175Z,24.60
2018-09-18T18:03:57.946Z,24.60
2018-09-18T18:06:02.100Z,24.60
2018-09-18T18:08:09.923Z,24.50
2018-09-18T18:10:13.762Z,24.50
2018-09-18T18:12:18.648Z,24.40
2018-09-18T18:14:23.289Z,24.40
2018-09-18T18:16:29.271Z,24.40
2018-09-18T18:18:35.433Z,24.30
2018-09-18T18:20:42.722Z,24.30
2018-09-18T18:22:46.654Z,24.30
2018-09-18T18:24:50.293Z,24.30
2018-09-18T18:26:55.896Z,24.30
2018-09-18T18:29:01.678Z,24.30
2018-09-18T18:31:06.161Z,24.20
2018-09-18T18:33:11.525Z,24.20
2018-09-18T18:35:16.734Z,24.20
2018-09-18T18:37:22.188Z,24.10
2018-09-18T18:39:27.150Z,24.20
2018-09-18T18:41:30.988Z,24.10
2018-09-18T18:43:34.787Z,24.10
2018-09-18T18:45:39.209Z,24.10
2018-09-18T18:47:44.103Z,24.00
2018-09-18T18:49:47.744Z,24.00
2018-09-18T18:51:52.195Z,24.00
2018-09-18T18:53:57.011Z,24.00
2018-09-18T18:56:01.168Z,23.90
2018-09-18T18:58:05.591Z,23.80
2018-09-18T19:00:09.907Z,23.80
2018-09-18T19:02:13.631Z,23.70
2018-09-18T19:04:17.836Z,23.70
2018-09-18T19:06:21.610Z,23.60
2018-09-18T19:08:25.846Z,23.60
2018-09-18T19:10:29.939Z,23.60
2018-09-18T19:12:34.114Z,23.60
2018-09-18T19:14:38.494Z,23.60
2018-09-18T19:16:42.283Z,23.60
2018-09-18T19:18:46.861Z,23.60
2018-09-18T19:20:51.679Z,23.50
2018-09-18T19:22:56.393Z,23.50
2018-09-18T19:25:00.253Z,23.40
2018-09-18T19:27:04.012Z,23.40
2018-09-18T19:29:07.798Z,23.40
2018-09-18T19:31:11.490Z,23.40
2018-09-18T19:33:15.361Z,23.30
2018-09-18T19:35:18.907Z,23.20
2018-09-18T19:37:22.608Z,23.20
2018-09-18T19:39:26.294Z,23.10
2018-09-18T19:41:29.975Z,23.00
2018-09-18T19:43:33.690Z,22.90
2018-09-18T19:45:37.442Z,22.80
2018-09-18T19:47:41.110Z,22.80
2018-09-18T19:49:44.794Z,22.80
2018-09-18T19:51:48.600Z,22.80
2018-09-18T19:53:52.291Z,22.80
2018-09-18T19:55:55.932Z,22.80
2018-09-18T19:57:59.614Z,22.80
2018-09-18T20:00:03.345Z,22.70
2018-09-18T20:02:07.374Z,22.70
2018-09-18T20:04:11.254Z,22.60
2018-09-18T20:06:14.982Z,22.60
2018-09-18T20:08:18.711Z,22.50
2018-09-18T20:10:22.405Z,22.50
2018-09-18T20:12:26.056Z,22.40
2018-09-18T20:14:29.777Z,22.30
2018-09-18T20:16:33.526Z,22.30
2018-09-18T20:18:37.208Z,22.30
2018-09-18T20:20:41.005Z,22.30
2018-09-18T20:22:44.687Z,22.30
2018-09-18T20:24:48.374Z,22.30
2018-09-18T20:26:52.020Z,22.20
2018-09-18T20:28:55.808Z,22.20
2018-09-18T20:30:59.491Z,22.10
2018-09-18T20:33:03.232Z,22.10
2018-09-18T20:35:06.969Z,22.00
2018-09-18T20:37:10.657Z,22.00
2018-09-18T20:39:14.329Z,21.90
2018-09-18T20:41:18.037Z,21.90
2018-09-18T20:43:21.697Z,21.90
2018-09-18T20:45:25.476Z,21.80
2018-09-18T20:47:29.127Z,21.80
2018-09-18T20:49:32.805Z,21.70
2018-09-18T20:51:36.468Z,21.70
2018-09-18T20:53:40.172Z,21.60
2018-09-18T20:55:43.828Z,21.60
2018-09-18T20:57:47.498Z,21.60
2018-09-18T20:59:51.212Z,21.50
2018-09-18T21:01:55.910Z,21.50
2018-09-18T21:03:59.565Z,21.40
2018-09-18T21:06:03.309Z,21.40
2018-09-18T21:08:06.967Z,21.30
2018-09-18T21:10:10.686Z,21.30
2018-09-18T21:12:14.368Z,21.20
2018-09-18T21:14:18.084Z,21.20
2018-09-18T21:16:21.795Z,21.10
2018-09-18T21:18:25.472Z,21.10
2018-09-18T21:20:29.180Z,21.10
2018-09-18T21:22:32.847Z,21.00
2018-09-18T21:24:36.529Z,21.00
2018-09-18T21:26:40.198Z,21.00
2018-09-18T21:28:43.979Z,21.00
2018-09-18T21:30:47.678Z,20.90
2018-09-18T21:32:51.369Z,20.90
2018-09-18T21:34:55.131Z,20.80
2018-09-18T21:36:58.836Z,20.80
2018-09-18T21:39:02.588Z,20.80
2018-09-18T21:41:06.296Z,20.70
2018-09-18T21:43:09.964Z,20.60
2018-09-18T21:45:13.660Z,20.60
2018-09-18T21:47:17.392Z,20.60
2018-09-18T21:49:21.076Z,20.50
2018-09-18T21:51:24.765Z,20.50
2018-09-18T21:53:28.447Z,20.50
2018-09-18T21:55:32.161Z,20.40
2018-09-18T21:57:35.817Z,20.50
2018-09-18T21:59:39.487Z,20.40
2018-09-18T22:01:43.223Z,20.40
2018-09-18T22:03:46.939Z,20.40
2018-09-18T22:05:50.830Z,20.30
2018-09-18T22:07:54.575Z,20.30
2018-09-18T22:09:58.302Z,20.30
2018-09-18T22:12:02.045Z,20.20
2018-09-18T22:14:05.857Z,20.20
2018-09-18T22:16:09.549Z,20.20
2018-09-18T22:18:13.203Z,20.10
2018-09-18T22:20:17.113Z,20.10
2018-09-18T22:22:20.897Z,20.10
2018-09-18T22:24:24.534Z,20.00
2018-09-18T22:26:28.199Z,20.00
2018-09-18T22:28:31.904Z,20.00
2018-09-18T22:30:35.609Z,20.00
2018-09-18T22:32:39.306Z,20.00
2018-09-18T22:34:43.029Z,20.00
2018-09-18T22:36:46.699Z,19.90
2018-09-18T22:38:50.431Z,19.90
2018-09-18T22:40:54.159Z,19.90
2018-09-18T22:42:57.833Z,19.90
2018-09-18T22:45:01.580Z,19.90
2018-09-18T22:47:05.242Z,19.90
2018-09-18T22:49:08.879Z,19.90
2018-09-18T22:51:12.603Z,19.90
2018-09-18T22:53:16.302Z,19.90
2018-09-18T22:55:19.992Z,19.90
2018-09-18T22:57:23.979Z,19.90
2018-09-18T22:59:27.596Z,19.90
2018-09-18T23:01:31.321Z,19.90
2018-09-18T23:03:34.954Z,19.90
2018-09-18T23:05:38.664Z,19.90
2018-09-18T23:07:42.331Z,19.90
2018-09-18T23:09:46.007Z,19.90
2018-09-18T23:11:49.761Z,19.90
2018-09-18T23:13:53.438Z,19.80
2018-09-18T23:15:57.149Z,19.80
2018-09-18T23:18:00.827Z,19.80
2018-09-18T23:20:04.814Z,19.80
2018-09-18T23:22:08.483Z,19.80
2018-09-18T23:24:12.130Z,19.80
2018-09-18T23:26:15.872Z,19.60
2018-09-18T23:28:19.566Z,19.50
2018-09-18T23:30:23.243Z,19.50
2018-09-18T23:32:26.992Z,19.50
2018-09-18T23:34:30.720Z,19.50
2018-09-18T23:36:34.382Z,19.50
2018-09-18T23:38:38.067Z,19.50
2018-09-18T23:40:41.762Z,19.60
2018-09-18T23:42:45.474Z,19.60
2018-09-18T23:44:49.149Z,19.60
2018-09-18T23:46:52.927Z,19.60
2018-09-18T23:48:56.624Z,19.50
2018-09-18T23:51:00.293Z,19.50
2018-09-18T23:53:03.936Z,19.50
2018-09-18T23:55:07.644Z,19.50
2018-09-18T23:57:11.368Z,19.50
2018-09-18T23:59:15.061Z,19.50
